KSME

Lake Cumberland Regional Airport

Somerset, Kentucky, USA
METAR KSME 190655Z AUTO 00000KT 10SM CLR M02/M02 A3010 RMK AO2
Observed Flight Rules
Dec-19 @ 06:55 UTC (36 minutes ago) Visual Flight Rules
Visibility Clouds
10 miles
  • Clear skies
Temperatures Readings
Current -2°C / 28°F
Dewpoint -2°C / 28°F
Humidity 100%
Altimeter 30.1" Hg
Pressure 1019 hPa
Elevation 283
METAR KSME 190655Z AUTO 00000KT 10SM CLR M02/M02 A3010 RMK AO2
Observed Flight Rules
Dec-19 @ 06:55 UTC
(36 minutes ago)
VFR
Clouds
  • Clear skies
Temperature Dewpoint
-2°C / 28°F -2°C / 28°F
Humidity Altimeter Pressure
100% 30.1" Hg 1019 hPa